createdAt,value
2022-11-12T00:02:44.163Z,18.48
2022-11-12T00:05:32.581Z,18.49
2022-11-12T00:08:20.084Z,18.50
2022-11-12T00:11:08.634Z,18.56
2022-11-12T00:13:56.136Z,18.60
2022-11-12T00:16:43.903Z,18.62
2022-11-12T00:19:31.499Z,18.65
2022-11-12T00:22:19.566Z,18.60
2022-11-12T00:25:07.835Z,18.60
2022-11-12T00:27:55.956Z,18.60
2022-11-12T00:30:43.729Z,18.59
2022-11-12T00:33:31.566Z,18.58
2022-11-12T00:36:19.669Z,18.53
2022-11-12T00:39:07.208Z,18.55
2022-11-12T00:41:54.944Z,18.44
2022-11-12T00:44:42.503Z,18.42
2022-11-12T00:47:30.226Z,18.43
2022-11-12T00:50:18.077Z,18.41
2022-11-12T00:53:05.831Z,18.39
2022-11-12T00:55:53.754Z,18.35
2022-11-12T00:58:41.742Z,18.36
2022-11-12T01:01:34.071Z,18.34
2022-11-12T01:04:27.031Z,18.27
2022-11-12T01:07:21.502Z,18.24
2022-11-12T01:10:14.385Z,18.27
2022-11-12T01:13:06.877Z,18.28
2022-11-12T01:15:56.405Z,18.25
2022-11-12T01:18:46.755Z,18.27
2022-11-12T01:21:39.734Z,18.33
2022-11-12T01:24:28.351Z,18.35
2022-11-12T01:27:17.926Z,18.41
2022-11-12T01:30:09.253Z,18.41
2022-11-12T01:32:58.961Z,18.38
2022-11-12T01:35:48.049Z,18.41
2022-11-12T01:38:37.877Z,18.47
2022-11-12T01:41:32.145Z,18.51
2022-11-12T01:44:26.552Z,18.45
2022-11-12T01:47:36.006Z,18.48
2022-11-12T01:50:36.373Z,18.55
2022-11-12T01:53:28.079Z,18.54
2022-11-12T01:56:20.627Z,18.58
2022-11-12T01:59:18.854Z,18.62
2022-11-12T02:02:07.563Z,18.56
2022-11-12T02:04:57.495Z,18.61
2022-11-12T02:07:48.905Z,18.67
2022-11-12T02:10:38.239Z,18.69
2022-11-12T02:13:45.933Z,18.69
2022-11-12T02:16:39.656Z,18.60
2022-11-12T02:19:28.494Z,18.73
2022-11-12T02:22:17.285Z,18.85
2022-11-12T02:25:05.955Z,19.02
2022-11-12T02:27:56.616Z,19.16
2022-11-12T02:30:50.442Z,19.32
2022-11-12T02:33:38.537Z,19.42
2022-11-12T02:36:28.603Z,19.58
2022-11-12T02:39:17.314Z,19.72
2022-11-12T02:42:05.981Z,19.78
2022-11-12T02:44:54.910Z,19.88
2022-11-12T02:47:43.310Z,19.95
2022-11-12T02:50:32.033Z,19.92
2022-11-12T02:53:21.056Z,19.96
2022-11-12T02:56:10.496Z,20.02
2022-11-12T02:58:59.601Z,20.10
2022-11-12T03:01:51.715Z,20.14
2022-11-12T03:04:43.178Z,20.11
2022-11-12T03:07:34.188Z,20.31
2022-11-12T03:10:22.975Z,20.38
2022-11-12T03:13:11.050Z,20.48
2022-11-12T03:16:04.110Z,20.50
2022-11-12T03:18:52.626Z,20.42
2022-11-12T03:21:41.426Z,20.62
2022-11-12T03:24:34.983Z,20.62
2022-11-12T03:27:23.866Z,20.59
2022-11-12T03:30:13.321Z,20.65
2022-11-12T03:33:02.093Z,20.76
2022-11-12T03:35:50.256Z,20.98
2022-11-12T03:38:43.433Z,20.84
2022-11-12T03:41:31.856Z,20.79
2022-11-12T03:44:20.534Z,20.94
2022-11-12T03:47:08.950Z,20.94
2022-11-12T03:49:57.258Z,20.93
2022-11-12T03:52:56.896Z,21.18
2022-11-12T03:55:49.153Z,21.38
2022-11-12T03:58:37.464Z,21.35
2022-11-12T04:01:25.855Z,21.32
2022-11-12T04:04:17.359Z,21.32
2022-11-12T04:07:24.255Z,21.56
2022-11-12T04:10:12.724Z,21.76
2022-11-12T04:13:19.429Z,21.74
2022-11-12T04:16:31.965Z,21.92
2022-11-12T04:19:38.271Z,21.68
2022-11-12T04:22:28.120Z,21.90
2022-11-12T04:25:37.939Z,22.14
2022-11-12T04:28:29.160Z,21.97
2022-11-12T04:31:17.685Z,22.06
2022-11-12T04:34:25.716Z,22.25
2022-11-12T04:37:14.977Z,22.14
2022-11-12T04:40:23.638Z,22.51
2022-11-12T04:43:35.322Z,22.46
2022-11-12T04:46:30.205Z,22.42
2022-11-12T04:49:19.590Z,22.61
2022-11-12T04:52:08.320Z,22.65
2022-11-12T04:54:57.533Z,22.96
2022-11-12T04:58:00.413Z,22.88
2022-11-12T05:00:50.654Z,22.80
2022-11-12T05:03:39.297Z,22.98
2022-11-12T05:06:46.107Z,23.10
2022-11-12T05:09:35.351Z,23.17
2022-11-12T05:12:23.984Z,23.15
2022-11-12T05:15:14.014Z,23.45
2022-11-12T05:18:02.655Z,23.47
2022-11-12T05:20:54.398Z,23.46
2022-11-12T05:23:44.119Z,23.58
2022-11-12T05:26:32.840Z,23.71
2022-11-12T05:29:20.961Z,23.62
2022-11-12T05:32:11.045Z,23.74
2022-11-12T05:34:59.945Z,23.98
2022-11-12T05:37:48.719Z,24.12
2022-11-12T05:40:37.270Z,24.12
2022-11-12T05:43:27.177Z,24.05
2022-11-12T05:46:15.633Z,24.21
2022-11-12T05:49:03.858Z,24.15
2022-11-12T05:51:53.005Z,24.33
2022-11-12T05:54:44.046Z,24.36
2022-11-12T05:57:32.643Z,24.41
2022-11-12T06:00:21.585Z,24.61
2022-11-12T06:03:12.122Z,24.37
2022-11-12T06:06:01.221Z,24.61
2022-11-12T06:08:49.995Z,24.60
2022-11-12T06:11:39.601Z,24.72
2022-11-12T06:14:28.481Z,24.89
2022-11-12T06:17:17.133Z,24.90
2022-11-12T06:20:06.545Z,24.99
2022-11-12T06:22:55.182Z,25.04
2022-11-12T06:25:45.600Z,25.18
2022-11-12T06:28:34.241Z,25.29
2022-11-12T06:31:23.285Z,25.49
2022-11-12T06:34:16.987Z,25.35
2022-11-12T06:37:07.216Z,25.49
2022-11-12T06:39:55.930Z,25.60
2022-11-12T06:42:44.201Z,25.58
2022-11-12T06:45:32.893Z,25.43
2022-11-12T06:48:23.243Z,25.49
2022-11-12T06:51:20.163Z,25.73
2022-11-12T06:54:08.858Z,25.62
2022-11-12T06:56:57.474Z,25.63
2022-11-12T06:59:45.387Z,25.83
2022-11-12T07:02:32.934Z,25.82
2022-11-12T07:05:21.023Z,25.78
2022-11-12T07:08:11.419Z,25.81
2022-11-12T07:11:02.169Z,25.62
2022-11-12T07:13:50.699Z,25.92
2022-11-12T07:16:38.358Z,26.09
2022-11-12T07:19:26.252Z,26.11
2022-11-12T07:22:13.882Z,26.16
2022-11-12T07:25:01.646Z,26.23
2022-11-12T07:27:51.043Z,26.22
2022-11-12T07:30:41.746Z,26.27
2022-11-12T07:33:30.766Z,26.36
2022-11-12T07:36:22.292Z,26.32
2022-11-12T07:39:10.026Z,26.27
2022-11-12T07:42:00.219Z,26.41
2022-11-12T07:44:47.673Z,26.29
2022-11-12T07:47:36.726Z,26.52
2022-11-12T07:50:24.328Z,26.50
2022-11-12T07:53:13.273Z,26.59
2022-11-12T07:56:03.644Z,26.72
2022-11-12T07:58:54.063Z,26.76
2022-11-12T08:01:43.236Z,26.78
2022-11-12T08:04:30.990Z,26.70
2022-11-12T08:07:19.046Z,26.65
2022-11-12T08:10:08.278Z,26.71
2022-11-12T08:12:58.304Z,26.93
2022-11-12T08:15:51.972Z,26.91
2022-11-12T08:18:40.931Z,26.98
2022-11-12T08:21:28.948Z,26.78
2022-11-12T08:24:16.839Z,26.81
2022-11-12T08:27:04.529Z,26.79
2022-11-12T08:29:51.916Z,27.02
2022-11-12T08:32:41.040Z,26.99
2022-11-12T08:35:31.543Z,27.01
2022-11-12T08:38:19.484Z,27.07
2022-11-12T08:41:10.217Z,27.09
2022-11-12T08:44:01.861Z,27.02
2022-11-12T08:46:52.558Z,27.07
2022-11-12T08:49:43.794Z,27.09
2022-11-12T08:52:34.394Z,27.05
2022-11-12T08:55:22.188Z,27.03
2022-11-12T08:58:12.277Z,26.99
2022-11-12T09:01:07.721Z,27.01
2022-11-12T09:03:58.826Z,27.02
2022-11-12T09:06:51.185Z,27.05
2022-11-12T09:09:41.313Z,27.05
2022-11-12T09:12:29.907Z,27.18
2022-11-12T09:18:26.330Z,27.03
2022-11-12T09:21:15.975Z,27.12
2022-11-12T09:24:04.303Z,26.97
2022-11-12T09:26:55.160Z,27.08
2022-11-12T09:29:44.309Z,26.96
2022-11-12T09:32:32.268Z,26.90
2022-11-12T09:35:19.880Z,26.87
2022-11-12T09:38:08.980Z,27.04
2022-11-12T09:41:18.970Z,27.20
2022-11-12T09:44:15.009Z,27.12
2022-11-12T09:47:17.772Z,27.14
2022-11-12T09:50:13.196Z,27.16
2022-11-12T09:53:32.042Z,27.15
2022-11-12T09:56:25.292Z,27.05
2022-11-12T09:59:16.029Z,27.03
2022-11-12T10:02:59.722Z,27.05
2022-11-12T10:05:50.839Z,27.13
2022-11-12T10:08:53.109Z,27.00
2022-11-12T10:12:13.771Z,27.02
2022-11-12T10:15:37.917Z,26.83
2022-11-12T10:18:56.081Z,27.06
2022-11-12T10:22:15.694Z,27.03
2022-11-12T10:25:23.277Z,26.98
2022-11-12T10:28:28.030Z,26.87
2022-11-12T10:31:22.095Z,26.87
2022-11-12T10:34:20.398Z,26.81
2022-11-12T10:37:14.787Z,26.84
2022-11-12T10:40:22.433Z,26.77
2022-11-12T10:43:19.499Z,26.86
2022-11-12T10:46:40.737Z,26.80
2022-11-12T10:49:28.403Z,26.63
2022-11-12T10:52:25.398Z,26.69
2022-11-12T10:55:22.700Z,26.63
2022-11-12T10:58:13.187Z,26.64
2022-11-12T11:01:14.007Z,26.61
2022-11-12T11:04:01.722Z,26.46
2022-11-12T11:07:01.795Z,26.41
2022-11-12T11:10:01.456Z,26.42
2022-11-12T11:12:49.476Z,26.30
2022-11-12T11:15:38.163Z,26.17
2022-11-12T11:18:26.791Z,26.25
2022-11-12T11:21:33.358Z,26.37
2022-11-12T11:24:27.830Z,26.11
2022-11-12T11:27:59.315Z,26.22
2022-11-12T11:31:03.649Z,26.17
2022-11-12T11:34:28.749Z,26.10
2022-11-12T11:37:28.234Z,26.04
2022-11-12T11:40:47.700Z,25.92
2022-11-12T11:43:52.756Z,25.74
2022-11-12T11:46:46.709Z,25.56
2022-11-12T11:49:46.448Z,25.32
2022-11-12T11:52:43.372Z,25.39
2022-11-12T11:55:49.631Z,25.34
2022-11-12T11:59:06.993Z,25.26
2022-11-12T12:02:12.644Z,25.20
2022-11-12T12:05:18.745Z,25.03
2022-11-12T12:08:18.674Z,25.03
2022-11-12T12:11:22.822Z,25.00
2022-11-12T12:14:20.978Z,24.91
2022-11-12T12:17:36.261Z,24.91
2022-11-12T12:20:36.072Z,24.86
2022-11-12T12:23:47.982Z,24.74
2022-11-12T12:27:06.724Z,24.62
2022-11-12T12:30:03.836Z,24.44
2022-11-12T12:33:09.905Z,24.42
2022-11-12T12:36:23.348Z,24.28
2022-11-12T12:39:45.045Z,24.20
2022-11-12T12:42:55.688Z,24.11
2022-11-12T12:45:48.663Z,24.01
2022-11-12T12:48:46.697Z,23.97
2022-11-12T12:51:36.581Z,23.88
2022-11-12T12:54:39.409Z,23.91
2022-11-12T12:57:37.689Z,23.84
2022-11-12T13:00:41.198Z,23.80
2022-11-12T13:04:05.197Z,23.73
2022-11-12T13:06:58.696Z,23.62
2022-11-12T13:09:46.523Z,23.47
2022-11-12T13:13:20.765Z,23.49
2022-11-12T13:16:09.691Z,23.31
2022-11-12T13:19:01.248Z,23.20
2022-11-12T13:21:49.062Z,23.16
2022-11-12T13:25:28.602Z,23.28
2022-11-12T13:28:16.620Z,23.14
2022-11-12T13:31:06.534Z,23.21
2022-11-12T13:33:55.178Z,23.15
2022-11-12T13:36:59.819Z,23.22
2022-11-12T13:39:47.911Z,23.07
2022-11-12T13:42:52.671Z,23.07
2022-11-12T13:46:03.060Z,23.07
2022-11-12T13:48:54.686Z,23.04
2022-11-12T13:56:00.134Z,22.97
2022-11-12T13:58:47.688Z,22.88
2022-11-12T14:01:36.273Z,22.92
2022-11-12T14:04:25.894Z,22.94
2022-11-12T14:07:40.697Z,22.96
2022-11-12T14:10:49.569Z,22.86
2022-11-12T14:13:55.155Z,22.75
2022-11-12T14:17:19.528Z,22.88
2022-11-12T14:20:27.455Z,22.87
2022-11-12T14:23:26.127Z,22.77
2022-11-12T14:26:15.624Z,22.67
2022-11-12T14:29:05.134Z,22.63
2022-11-12T14:32:03.873Z,22.55
2022-11-12T14:34:52.183Z,22.37
2022-11-12T14:37:43.605Z,22.29
2022-11-12T14:40:37.462Z,22.26
2022-11-12T14:43:43.235Z,22.28
2022-11-12T14:46:38.930Z,22.27
2022-11-12T14:49:49.275Z,22.35
2022-11-12T14:52:44.299Z,22.29
2022-11-12T14:55:35.986Z,22.28
2022-11-12T14:58:27.865Z,22.23
2022-11-12T15:04:43.750Z,22.18
2022-11-12T15:07:36.237Z,22.15
2022-11-12T15:10:46.805Z,22.18
2022-11-12T15:13:44.403Z,22.13
2022-11-12T15:16:34.475Z,21.98
2022-11-12T15:19:27.657Z,22.05
2022-11-12T15:22:23.615Z,22.03
2022-11-12T15:25:25.649Z,22.03
2022-11-12T15:28:26.040Z,22.00
2022-11-12T15:31:23.000Z,21.98
2022-11-12T15:34:35.048Z,21.98
2022-11-12T15:37:27.114Z,21.73
2022-11-12T15:40:23.572Z,21.81
2022-11-12T15:43:31.131Z,21.79
2022-11-12T15:46:18.642Z,21.70
2022-11-12T15:49:15.967Z,21.73
2022-11-12T15:52:03.458Z,21.57
2022-11-12T15:54:54.144Z,21.53
2022-11-12T15:57:53.413Z,21.59
2022-11-12T16:00:40.873Z,21.34
2022-11-12T16:03:29.019Z,21.40
2022-11-12T16:06:16.779Z,21.34
2022-11-12T16:09:04.803Z,21.39
2022-11-12T16:11:54.804Z,21.40
2022-11-12T16:14:42.665Z,21.41
2022-11-12T16:17:30.149Z,21.33
2022-11-12T16:20:33.637Z,21.39
2022-11-12T16:23:21.411Z,21.31
2022-11-12T16:26:11.145Z,21.30
2022-11-12T16:28:59.310Z,21.26
2022-11-12T16:31:47.496Z,21.25
2022-11-12T16:34:35.405Z,21.29
2022-11-12T16:37:22.942Z,21.24
2022-11-12T16:40:22.373Z,21.34
2022-11-12T16:43:10.207Z,21.19
2022-11-12T16:45:58.483Z,21.21
2022-11-12T16:48:45.772Z,21.19
2022-11-12T16:51:33.655Z,21.17
2022-11-12T16:54:21.477Z,21.13
2022-11-12T16:57:12.201Z,21.10
2022-11-12T16:59:59.902Z,21.06
2022-11-12T17:02:53.011Z,21.03
2022-11-12T17:05:40.491Z,21.15
2022-11-12T17:08:33.980Z,20.98
2022-11-12T17:11:22.477Z,20.98
2022-11-12T17:14:10.192Z,20.90
2022-11-12T17:16:58.383Z,20.76
2022-11-12T17:19:46.233Z,20.73
2022-11-12T17:22:34.651Z,20.71
2022-11-12T17:25:22.301Z,20.73
2022-11-12T17:28:09.794Z,20.68
2022-11-12T17:31:08.906Z,20.77
2022-11-12T17:33:56.728Z,20.67
2022-11-12T17:36:44.084Z,20.64
2022-11-12T17:39:32.093Z,20.68
2022-11-12T17:42:20.426Z,20.73
2022-11-12T17:45:09.036Z,20.71
2022-11-12T17:47:56.594Z,20.67
2022-11-12T17:50:45.120Z,20.57
2022-11-12T17:53:32.338Z,20.57
2022-11-12T17:56:23.190Z,20.62
2022-11-12T17:59:10.531Z,20.57
2022-11-12T18:01:57.888Z,20.56
2022-11-12T18:04:45.975Z,20.55
2022-11-12T18:07:33.923Z,20.56
2022-11-12T18:10:21.601Z,20.49
2022-11-12T18:13:10.254Z,20.49
2022-11-12T18:15:57.948Z,20.46
2022-11-12T18:18:46.665Z,20.45
2022-11-12T18:21:34.246Z,20.40
2022-11-12T18:24:22.505Z,20.42
2022-11-12T18:27:10.242Z,20.38
2022-11-12T18:29:58.447Z,20.36
2022-11-12T18:32:45.907Z,20.33
2022-11-12T18:35:33.440Z,20.21
2022-11-12T18:38:20.656Z,20.19
2022-11-12T18:41:16.879Z,20.14
2022-11-12T18:44:04.146Z,19.99
2022-11-12T18:46:52.314Z,20.04
2022-11-12T18:49:39.791Z,20.12
2022-11-12T18:52:27.849Z,20.24
2022-11-12T18:55:15.283Z,20.26
2022-11-12T18:58:03.012Z,20.38
2022-11-12T19:00:50.214Z,20.42
2022-11-12T19:03:38.199Z,20.20
2022-11-12T19:06:26.676Z,20.10
2022-11-12T19:09:16.006Z,19.92
2022-11-12T19:12:03.721Z,19.81
2022-11-12T19:14:51.507Z,19.90
2022-11-12T19:17:39.050Z,19.93
2022-11-12T19:20:26.497Z,19.95
2022-11-12T19:23:15.422Z,19.92
2022-11-12T19:26:04.384Z,19.95
2022-11-12T19:28:51.496Z,19.78
2022-11-12T19:31:39.644Z,19.80
2022-11-12T19:34:26.857Z,19.76
2022-11-12T19:40:21.951Z,19.73
2022-11-12T19:43:09.552Z,19.71
2022-11-12T19:45:57.031Z,19.69
2022-11-12T19:48:45.558Z,19.65
2022-11-12T19:51:32.959Z,19.67
2022-11-12T19:54:20.881Z,19.58
2022-11-12T19:57:08.376Z,19.59
2022-11-12T19:59:55.420Z,19.66
2022-11-12T20:02:43.145Z,19.65
2022-11-12T20:05:31.681Z,19.60
2022-11-12T20:08:18.520Z,19.55
2022-11-12T20:11:06.138Z,19.51
2022-11-12T20:13:57.103Z,19.56
2022-11-12T20:16:44.503Z,19.46
2022-11-12T20:19:31.968Z,19.47
2022-11-12T20:22:19.513Z,19.48
2022-11-12T20:25:07.640Z,19.47
2022-11-12T20:27:55.291Z,19.36
2022-11-12T20:30:42.873Z,19.32
2022-11-12T20:33:30.686Z,19.26
2022-11-12T20:36:21.921Z,19.26
2022-11-12T20:39:09.283Z,19.21
2022-11-12T20:41:57.460Z,19.10
2022-11-12T20:44:44.945Z,19.11
2022-11-12T20:47:33.448Z,19.16
2022-11-12T20:50:20.992Z,19.15
2022-11-12T20:53:08.182Z,19.14
2022-11-12T20:55:55.309Z,19.12
2022-11-12T20:58:43.150Z,19.05
2022-11-12T21:01:31.574Z,19.14
2022-11-12T21:04:18.983Z,19.17
2022-11-12T21:07:06.354Z,19.18
2022-11-12T21:09:54.092Z,19.24
2022-11-12T21:12:41.822Z,19.18
2022-11-12T21:15:29.699Z,19.24
2022-11-12T21:18:16.852Z,19.25
2022-11-12T21:21:07.701Z,19.31
2022-11-12T21:23:55.277Z,19.27
2022-11-12T21:26:44.075Z,19.04
2022-11-12T21:29:31.773Z,18.80
2022-11-12T21:32:19.457Z,18.88
2022-11-12T21:35:07.224Z,19.00
2022-11-12T21:37:55.047Z,18.95
2022-11-12T21:40:42.527Z,18.93
2022-11-12T21:43:30.404Z,18.86
2022-11-12T21:46:25.056Z,18.91
2022-11-12T21:49:12.505Z,18.88
2022-11-12T21:51:59.995Z,18.74
2022-11-12T21:54:47.357Z,18.81
2022-11-12T21:57:35.011Z,18.76
2022-11-12T22:03:33.337Z,18.97
2022-11-12T22:06:22.563Z,18.95
2022-11-12T22:09:09.815Z,18.95
2022-11-12T22:11:57.257Z,18.93
2022-11-12T22:14:45.081Z,19.00
2022-11-12T22:17:34.800Z,19.09
2022-11-12T22:20:23.021Z,19.02
2022-11-12T22:23:10.248Z,18.88
2022-11-12T22:26:01.624Z,18.95
2022-11-12T22:28:49.176Z,18.83
2022-11-12T22:31:36.854Z,18.81
2022-11-12T22:34:24.227Z,18.79
2022-11-12T22:37:12.951Z,18.79
2022-11-12T22:40:00.472Z,18.79
2022-11-12T22:42:47.988Z,18.76
2022-11-12T22:45:37.239Z,18.75
2022-11-12T22:48:25.644Z,18.52
2022-11-12T22:51:18.510Z,18.67
2022-11-12T22:54:09.220Z,18.72
2022-11-12T22:56:57.199Z,18.65
2022-11-12T22:59:44.917Z,18.53
2022-11-12T23:02:32.226Z,18.46
2022-11-12T23:05:19.904Z,18.32
2022-11-12T23:08:07.217Z,18.36
2022-11-12T23:10:55.059Z,18.27
2022-11-12T23:13:42.873Z,18.37
2022-11-12T23:16:32.459Z,18.42
2022-11-12T23:19:19.829Z,18.50
2022-11-12T23:22:08.627Z,18.49
2022-11-12T23:24:56.123Z,18.53
2022-11-12T23:27:44.318Z,18.49
2022-11-12T23:30:31.942Z,18.40
2022-11-12T23:33:19.866Z,18.50
2022-11-12T23:36:08.498Z,18.49
2022-11-12T23:38:56.150Z,18.44
2022-11-12T23:41:43.679Z,18.50
2022-11-12T23:44:31.760Z,18.52
2022-11-12T23:47:19.137Z,18.54
2022-11-12T23:50:07.296Z,18.52
2022-11-12T23:52:54.635Z,18.51
2022-11-12T23:55:45.981Z,18.63
2022-11-12T23:58:33.388Z,18.56
